Time;durP1;ratioP1;P1;durP2;ratioP2;P2;SDS_P1;SDS_P2;PMS_P1;PMS_P2;Temp;Humidity;BMP_temperature;BMP_pressure;BME280_temperature;BME280_humidity;BME280_pressure;Samples;Min_cycle;Max_cycle;Signal;HPM_P1;HPM_P2
2022/07/05 00:00:22;;;;;;;6.93;2.92;;;;;;;;;;10233879;28;20498;-81
2022/07/05 00:05:24;;;;;;;4.30;3.28;;;;;;;;;;10234487;29;20458;-81
2022/07/05 00:10:27;;;;;;;6.68;3.33;;;;;;;;;;10238291;29;20412;-81
2022/07/05 00:15:29;;;;;;;4.63;3.10;;;;;;;;;;10236390;29;20420;-81
2022/07/05 00:20:31;;;;;;;5.68;3.03;;;;;;;;;;10235206;29;20407;-81
2022/07/05 00:25:34;;;;;;;3.42;2.75;;;;;;;;;;10235464;29;20443;-81
2022/07/05 00:30:36;;;;;;;6.20;3.20;;;;;;;;;;10233910;29;20499;-81
2022/07/05 00:35:38;;;;;;;5.05;3.20;;;;;;;;;;10235658;29;20510;-81
2022/07/05 00:40:42;;;;;;;6.30;3.55;;;;;;;;;;10234808;29;20422;-81
2022/07/05 00:45:44;;;;;;;4.30;3.60;;;;;;;;;;10226781;29;20995;-81
2022/07/05 00:50:46;;;;;;;6.20;3.33;;;;;;;;;;10224591;29;20836;-81
2022/07/05 00:55:49;;;;;;;6.50;3.63;;;;;;;;;;10214217;29;20771;-81
2022/07/05 01:00:51;;;;;;;6.05;3.50;;;;;;;;;;10221368;29;20490;-81
2022/07/05 01:05:53;;;;;;;5.43;3.20;;;;;;;;;;10220667;29;20522;-81
2022/07/05 01:10:56;;;;;;;5.93;3.25;;;;;;;;;;10218020;28;20417;-82
2022/07/05 01:15:59;;;;;;;3.87;2.83;;;;;;;;;;10231132;29;20805;-81
2022/07/05 01:21:02;;;;;;;4.97;2.88;;;;;;;;;;10225609;29;20840;-82
2022/07/05 01:26:08;;;;;;;4.95;3.05;;;;;;;;;;10227694;29;20929;-80
2022/07/05 01:31:09;;;;;;;4.32;2.90;;;;;;;;;;10225966;29;20493;-82
2022/07/05 01:36:12;;;;;;;5.53;3.13;;;;;;;;;;10227160;29;20412;-82
2022/07/05 01:41:16;;;;;;;6.85;3.22;;;;;;;;;;10222572;29;20417;-81
2022/07/05 01:46:18;;;;;;;4.77;2.90;;;;;;;;;;10226463;29;20438;-82
2022/07/05 01:51:23;;;;;;;5.17;2.77;;;;;;;;;;10228222;29;20416;-83
2022/07/05 01:56:26;;;;;;;5.38;2.83;;;;;;;;;;10224249;29;20459;-80
2022/07/05 02:01:34;;;;;;;6.00;2.90;;;;;;;;;;10229935;29;20773;-81
2022/07/05 02:06:36;;;;;;;4.57;2.70;;;;;;;;;;10239695;29;20416;-81
2022/07/05 02:11:39;;;;;;;6.87;2.80;;;;;;;;;;10240196;29;20411;-82
2022/07/05 02:16:41;;;;;;;6.10;3.70;;;;;;;;;;10238926;29;20416;-82
2022/07/05 02:21:43;;;;;;;6.88;3.70;;;;;;;;;;10237077;29;20438;-81
2022/07/05 02:26:46;;;;;;;5.65;3.35;;;;;;;;;;10237799;29;20423;-81
2022/07/05 02:31:48;;;;;;;5.03;3.80;;;;;;;;;;10231018;29;20424;-81
2022/07/05 02:36:50;;;;;;;5.30;3.80;;;;;;;;;;10234906;29;20491;-81
2022/07/05 02:41:53;;;;;;;8.05;3.63;;;;;;;;;;10237411;29;20432;-82
2022/07/05 02:46:55;;;;;;;7.53;3.65;;;;;;;;;;10248900;23;20511;-88
2022/07/05 02:51:57;;;;;;;6.70;3.92;;;;;;;;;;10236527;29;20423;-89
2022/07/05 02:57:01;;;;;;;7.00;3.90;;;;;;;;;;10233937;28;20520;-88
2022/07/05 03:02:02;;;;;;;6.88;4.03;;;;;;;;;;10206983;29;20503;-88
2022/07/05 03:07:04;;;;;;;5.00;4.40;;;;;;;;;;10235860;29;20503;-88
2022/07/05 03:12:09;;;;;;;7.53;4.78;;;;;;;;;;10237694;29;20520;-88
2022/07/05 03:17:11;;;;;;;9.05;4.85;;;;;;;;;;10225053;29;20420;-88
2022/07/05 03:22:12;;;;;;;6.68;5.10;;;;;;;;;;10236349;29;20420;-88
2022/07/05 03:27:16;;;;;;;8.43;5.40;;;;;;;;;;10237303;29;20956;-89
2022/07/05 03:32:17;;;;;;;9.40;5.45;;;;;;;;;;10225423;29;20491;-87
2022/07/05 03:37:19;;;;;;;11.60;5.68;;;;;;;;;;10242368;28;20416;-89
2022/07/05 03:42:23;;;;;;;8.52;5.00;;;;;;;;;;10244834;29;20432;-88
2022/07/05 03:47:24;;;;;;;4.80;4.03;;;;;;;;;;10245413;29;20412;-89
2022/07/05 03:52:26;;;;;;;3.10;2.60;;;;;;;;;;10244859;29;20420;-89
2022/07/05 03:57:30;;;;;;;4.95;2.30;;;;;;;;;;10245280;29;20846;-89
2022/07/05 04:02:31;;;;;;;3.80;2.50;;;;;;;;;;10245092;29;20424;-89
2022/07/05 04:07:33;;;;;;;4.77;2.40;;;;;;;;;;10236921;29;20420;-88
2022/07/05 04:12:37;;;;;;;3.80;2.73;;;;;;;;;;10231112;29;20436;-89
2022/07/05 04:17:47;;;;;;;4.32;3.15;;;;;;;;;;10231052;29;20447;-88
2022/07/05 04:22:49;;;;;;;3.70;3.10;;;;;;;;;;10232398;29;20442;-88
2022/07/05 04:27:54;;;;;;;6.63;3.93;;;;;;;;;;10230130;29;20511;-89
2022/07/05 04:32:58;;;;;;;5.57;3.17;;;;;;;;;;10229726;29;20428;-88
2022/07/05 04:38:00;;;;;;;5.40;3.17;;;;;;;;;;10225700;29;20412;-89
2022/07/05 04:43:03;;;;;;;6.90;3.50;;;;;;;;;;10225976;29;20932;-88
2022/07/05 04:48:06;;;;;;;6.20;4.15;;;;;;;;;;10232182;28;20959;-89
2022/07/05 04:53:08;;;;;;;8.85;5.80;;;;;;;;;;10230957;29;20404;-89
2022/07/05 04:58:11;;;;;;;13.27;9.07;;;;;;;;;;10228921;29;20405;-89
2022/07/05 05:03:13;;;;;;;12.95;8.82;;;;;;;;;;10228019;29;20474;-88
2022/07/05 05:08:15;;;;;;;8.50;7.15;;;;;;;;;;10234032;29;20426;-90
2022/07/05 05:13:18;;;;;;;4.95;3.60;;;;;;;;;;10226171;29;20412;-90
2022/07/05 05:18:24;;;;;;;3.90;2.30;;;;;;;;;;10218607;29;20406;-90
2022/07/05 05:23:26;;;;;;;4.70;2.85;;;;;;;;;;10224501;29;20424;-90
2022/07/05 05:28:29;;;;;;;3.30;1.83;;;;;;;;;;10227272;29;20417;-90
2022/07/05 05:33:31;;;;;;;3.27;2.10;;;;;;;;;;10224812;29;20462;-90
2022/07/05 05:38:33;;;;;;;4.53;1.97;;;;;;;;;;10230112;29;20412;-90
2022/07/05 05:43:36;;;;;;;3.03;2.22;;;;;;;;;;10228958;29;20467;-90
2022/07/05 05:48:38;;;;;;;3.07;1.90;;;;;;;;;;10224552;29;20456;-87
2022/07/05 05:53:40;;;;;;;3.42;1.90;;;;;;;;;;10219402;29;20845;-88
2022/07/05 05:58:43;;;;;;;10.57;4.03;;;;;;;;;;10220724;28;20842;-88
2022/07/05 06:03:45;;;;;;;10.02;4.28;;;;;;;;;;10222372;29;20798;-87
2022/07/05 06:08:46;;;;;;;5.38;2.38;;;;;;;;;;10219673;29;20524;-87
2022/07/05 06:13:50;;;;;;;4.63;2.22;;;;;;;;;;10227116;29;20406;-87
2022/07/05 06:18:51;;;;;;;4.22;2.10;;;;;;;;;;10219246;29;20516;-77
2022/07/05 06:23:53;;;;;;;2.17;1.55;;;;;;;;;;10215582;29;20471;-76
2022/07/05 06:28:56;;;;;;;3.67;1.80;;;;;;;;;;10210921;29;20409;-77
2022/07/05 06:33:58;;;;;;;4.22;1.90;;;;;;;;;;10221919;29;20913;-77
2022/07/05 06:39:00;;;;;;;10.97;2.60;;;;;;;;;;10220539;29;20650;-80
2022/07/05 06:44:03;;;;;;;3.38;1.52;;;;;;;;;;10222062;29;20439;-80
2022/07/05 06:49:05;;;;;;;6.60;2.03;;;;;;;;;;10231315;29;20415;-79
2022/07/05 06:54:07;;;;;;;3.53;1.55;;;;;;;;;;10223103;29;20445;-79
2022/07/05 06:59:10;;;;;;;5.45;1.77;;;;;;;;;;10225036;28;20434;-80
2022/07/05 07:04:12;;;;;;;4.13;1.77;;;;;;;;;;10225611;28;20913;-80
2022/07/05 07:09:20;;;;;;;4.18;1.60;;;;;;;;;;10219093;29;20414;-80
2022/07/05 07:14:23;;;;;;;4.63;1.60;;;;;;;;;;10228498;29;20469;-81
2022/07/05 07:19:25;;;;;;;2.80;1.40;;;;;;;;;;10230226;29;20408;-81
2022/07/05 07:24:27;;;;;;;2.63;1.20;;;;;;;;;;10225377;29;20728;-81
2022/07/05 07:29:31;;;;;;;3.17;1.38;;;;;;;;;;10229294;29;20459;-81
2022/07/05 07:34:33;;;;;;;2.90;1.50;;;;;;;;;;10229781;29;20422;-81
2022/07/05 07:39:35;;;;;;;2.47;1.30;;;;;;;;;;10240318;29;20430;-81
2022/07/05 07:44:39;;;;;;;2.90;1.42;;;;;;;;;;10241220;29;21007;-81
2022/07/05 07:49:41;;;;;;;2.83;1.40;;;;;;;;;;10230587;29;20418;-86
2022/07/05 07:54:43;;;;;;;1.40;1.30;;;;;;;;;;10234111;29;20471;-86
2022/07/05 07:59:47;;;;;;;3.87;1.40;;;;;;;;;;10231388;29;20839;-86
2022/07/05 08:04:48;;;;;;;3.00;1.30;;;;;;;;;;10227194;29;20516;-86
2022/07/05 08:09:52;;;;;;;3.87;1.67;;;;;;;;;;10229740;29;20432;-85
2022/07/05 08:14:55;;;;;;;2.25;1.35;;;;;;;;;;10239115;29;20719;-86
2022/07/05 08:25:17;;;;;;;3.25;2.10;;;;;;;;;;10236620;29;20435;-86
2022/07/05 08:52:51;;;;;;;3.20;2.20;;;;;;;;;;10503884;28;20382;-84
2022/07/05 08:57:52;;;;;;;3.38;2.20;;;;;;;;;;10479633;28;20423;-85
2022/07/05 09:02:55;;;;;;;4.57;2.33;;;;;;;;;;10477720;28;20409;-86
2022/07/05 09:08:00;;;;;;;3.85;2.40;;;;;;;;;;10477126;28;20770;-85
2022/07/05 09:13:02;;;;;;;4.50;2.40;;;;;;;;;;10481098;28;20871;-85
2022/07/05 09:18:04;;;;;;;5.90;2.30;;;;;;;;;;10487192;28;20410;-84
2022/07/05 09:23:08;;;;;;;4.25;2.15;;;;;;;;;;10481887;28;20566;-85
2022/07/05 09:28:10;;;;;;;4.68;2.40;;;;;;;;;;10479840;28;20458;-84
2022/07/05 09:33:14;;;;;;;3.80;2.37;;;;;;;;;;10477260;28;20403;-85
2022/07/05 09:38:20;;;;;;;4.30;2.33;;;;;;;;;;10476671;28;20415;-85
2022/07/05 09:43:23;;;;;;;4.85;2.35;;;;;;;;;;10477596;28;20452;-85
2022/07/05 09:48:26;;;;;;;2.43;2.10;;;;;;;;;;10472271;28;20419;-84
2022/07/05 09:53:45;;;;;;;4.73;2.10;;;;;;;;;;10448487;28;20404;-85
2022/07/05 09:58:47;;;;;;;3.30;2.40;;;;;;;;;;10442506;28;20478;-85
2022/07/05 10:03:53;;;;;;;3.30;1.93;;;;;;;;;;10444046;28;20884;-88
2022/07/05 10:08:56;;;;;;;4.15;2.30;;;;;;;;;;10441158;28;20445;-86
2022/07/05 10:13:59;;;;;;;4.03;2.13;;;;;;;;;;10434505;28;20464;-85
2022/07/05 10:19:01;;;;;;;3.95;2.38;;;;;;;;;;10442536;28;20408;-85
2022/07/05 10:24:05;;;;;;;4.75;2.58;;;;;;;;;;10444125;28;20422;-87
2022/07/05 10:29:08;;;;;;;4.70;2.40;;;;;;;;;;10441617;28;20420;-85
2022/07/05 10:34:11;;;;;;;2.72;2.28;;;;;;;;;;10444635;28;20425;-85
2022/07/05 10:39:15;;;;;;;3.20;2.20;;;;;;;;;;10437465;28;20432;-85
2022/07/05 10:44:27;;;;;;;2.40;2.20;;;;;;;;;;10440473;28;20921;-85
2022/07/05 10:49:29;;;;;;;3.45;2.20;;;;;;;;;;10435840;28;20432;-85
2022/07/05 10:54:33;;;;;;;2.80;2.10;;;;;;;;;;10440924;28;20419;-85
2022/07/05 11:00:06;;;;;;;4.43;2.10;;;;;;;;;;10438713;28;20404;-85
2022/07/05 11:05:08;;;;;;;4.20;2.13;;;;;;;;;;10435545;28;20420;-85
2022/07/05 11:10:13;;;;;;;2.55;2.17;;;;;;;;;;10435950;28;20412;-85
2022/07/05 11:15:15;;;;;;;4.10;2.17;;;;;;;;;;10438408;28;20425;-86
2022/07/05 11:20:23;;;;;;;3.33;2.03;;;;;;;;;;10437324;28;20426;-86
2022/07/05 11:25:28;;;;;;;3.83;1.87;;;;;;;;;;10434813;28;20466;-86
2022/07/05 11:30:30;;;;;;;5.82;2.10;;;;;;;;;;10442979;28;20515;-84
2022/07/05 11:35:34;;;;;;;5.00;2.20;;;;;;;;;;10426680;28;20422;-85
2022/07/05 11:40:38;;;;;;;4.77;1.90;;;;;;;;;;10431931;28;20415;-85
2022/07/05 11:45:40;;;;;;;4.50;1.80;;;;;;;;;;10434395;28;20431;-84
2022/07/05 11:50:42;;;;;;;2.78;1.67;;;;;;;;;;10436377;28;20427;-84
2022/07/05 11:55:45;;;;;;;2.80;2.00;;;;;;;;;;10437804;28;20482;-85
2022/07/05 12:00:55;;;;;;;3.33;2.30;;;;;;;;;;10441872;28;21000;-84
2022/07/05 12:05:57;;;;;;;3.10;1.90;;;;;;;;;;10431004;28;20461;-85
2022/07/05 12:16:19;;;;;;;4.32;2.40;;;;;;;;;;10439980;28;20400;-85
2022/07/05 12:21:21;;;;;;;5.37;2.40;;;;;;;;;;10436904;28;20465;-84
2022/07/05 12:26:25;;;;;;;3.08;2.20;;;;;;;;;;10436481;28;20407;-84
2022/07/05 12:31:27;;;;;;;4.63;2.20;;;;;;;;;;10436232;28;20427;-86
2022/07/05 12:36:29;;;;;;;3.20;1.90;;;;;;;;;;10427215;28;20977;-85
2022/07/05 12:41:32;;;;;;;4.95;2.47;;;;;;;;;;10440018;28;20902;-84
2022/07/05 12:46:38;;;;;;;2.73;2.10;;;;;;;;;;10442685;28;20514;-84
2022/07/05 12:51:40;;;;;;;3.55;2.20;;;;;;;;;;10432820;28;20428;-85
2022/07/05 13:02:08;;;;;;;3.28;2.15;;;;;;;;;;10440334;28;20387;-84
2022/07/05 13:07:10;;;;;;;2.60;2.07;;;;;;;;;;10436408;28;20419;-85
2022/07/05 13:12:16;;;;;;;2.38;1.90;;;;;;;;;;10433058;28;20429;-84
2022/07/05 13:17:20;;;;;;;4.13;2.07;;;;;;;;;;10433935;28;20910;-86
2022/07/05 13:22:22;;;;;;;2.80;1.75;;;;;;;;;;10437948;28;20931;-84
2022/07/05 13:27:25;;;;;;;3.30;1.90;;;;;;;;;;10440186;28;20498;-85
2022/07/05 13:32:27;;;;;;;3.65;2.15;;;;;;;;;;10443670;28;20421;-84
2022/07/05 13:37:29;;;;;;;3.70;2.03;;;;;;;;;;10441676;28;20399;-84
2022/07/05 13:42:32;;;;;;;3.33;2.00;;;;;;;;;;10441127;28;20395;-84
2022/07/05 13:47:34;;;;;;;5.53;2.30;;;;;;;;;;10444710;28;20760;-83
2022/07/05 13:52:35;;;;;;;4.32;2.20;;;;;;;;;;10440632;28;20877;-84
2022/07/05 13:57:39;;;;;;;4.37;2.10;;;;;;;;;;10442515;28;20428;-85
2022/07/05 14:02:40;;;;;;;2.45;2.13;;;;;;;;;;10445576;28;20412;-84
2022/07/05 14:07:42;;;;;;;3.47;2.00;;;;;;;;;;10444962;28;20496;-84
2022/07/05 14:12:45;;;;;;;3.58;2.00;;;;;;;;;;10439402;28;20419;-83
2022/07/05 14:17:47;;;;;;;2.80;2.10;;;;;;;;;;10438887;28;21054;-84
2022/07/05 14:22:49;;;;;;;3.97;2.08;;;;;;;;;;10440627;28;20769;-84
2022/07/05 14:27:52;;;;;;;4.93;2.03;;;;;;;;;;10442542;28;20403;-85
2022/07/05 14:32:54;;;;;;;3.63;2.20;;;;;;;;;;10443712;28;20503;-84
2022/07/05 14:37:57;;;;;;;2.03;1.83;;;;;;;;;;10440515;28;20419;-85
2022/07/05 14:43:01;;;;;;;3.25;2.15;;;;;;;;;;10439478;28;20403;-84
2022/07/05 14:48:03;;;;;;;2.70;1.90;;;;;;;;;;10437865;28;20416;-84
2022/07/05 14:59:11;;;;;;;4.70;2.00;;;;;;;;;;10412630;28;20514;-83
2022/07/05 15:04:13;;;;;;;3.72;2.03;;;;;;;;;;10436061;28;20879;-84
2022/07/05 15:09:15;;;;;;;3.20;2.15;;;;;;;;;;10432925;28;20423;-84
2022/07/05 15:14:18;;;;;;;2.37;2.07;;;;;;;;;;10435616;28;20410;-83
2022/07/05 15:19:20;;;;;;;3.00;2.00;;;;;;;;;;10436610;28;20439;-83
2022/07/05 15:24:22;;;;;;;2.97;2.08;;;;;;;;;;10429690;28;20411;-83
2022/07/05 15:29:26;;;;;;;3.63;2.40;;;;;;;;;;10435764;28;20540;-84
2022/07/05 15:34:28;;;;;;;3.15;2.13;;;;;;;;;;10433442;28;20505;-84
2022/07/05 15:39:32;;;;;;;3.40;2.20;;;;;;;;;;10426972;28;20419;-83
2022/07/05 15:44:35;;;;;;;2.45;1.90;;;;;;;;;;10432977;28;20899;-84
2022/07/05 15:49:37;;;;;;;2.58;2.15;;;;;;;;;;10434473;28;20450;-85
2022/07/05 15:54:39;;;;;;;3.17;2.03;;;;;;;;;;10436520;28;20419;-85
2022/07/05 15:59:42;;;;;;;2.80;2.10;;;;;;;;;;10437003;28;20403;-85
2022/07/05 16:04:44;;;;;;;3.88;2.08;;;;;;;;;;10432794;28;20517;-85
2022/07/05 16:09:49;;;;;;;3.70;2.10;;;;;;;;;;10435066;28;20415;-85
2022/07/05 16:14:52;;;;;;;4.28;2.30;;;;;;;;;;10439080;28;20412;-84
2022/07/05 16:19:54;;;;;;;3.10;2.20;;;;;;;;;;10431876;28;20415;-84
2022/07/05 16:24:56;;;;;;;2.90;2.08;;;;;;;;;;10435660;28;20984;-84
2022/07/05 16:29:59;;;;;;;2.95;1.88;;;;;;;;;;10436112;28;20427;-84
2022/07/05 16:35:01;;;;;;;4.00;2.10;;;;;;;;;;10435063;28;20411;-85
2022/07/05 16:40:03;;;;;;;3.63;2.00;;;;;;;;;;10433045;28;20914;-84
2022/07/05 16:45:08;;;;;;;3.17;2.08;;;;;;;;;;10432487;28;20402;-84
2022/07/05 16:50:10;;;;;;;2.90;2.40;;;;;;;;;;10426359;28;20431;-84
2022/07/05 16:55:12;;;;;;;11.73;1.88;;;;;;;;;;10434032;28;20396;-84
2022/07/05 17:00:16;;;;;;;5.35;1.50;;;;;;;;;;10432264;28;20399;-83
2022/07/05 17:05:18;;;;;;;3.53;1.40;;;;;;;;;;10438312;28;20419;-85
2022/07/05 17:10:20;;;;;;;6.63;1.70;;;;;;;;;;10427736;28;20893;-86
2022/07/05 17:15:23;;;;;;;2.70;1.53;;;;;;;;;;10438390;28;20423;-84
2022/07/05 17:20:25;;;;;;;4.67;1.77;;;;;;;;;;10439084;28;20403;-85
2022/07/05 17:25:26;;;;;;;2.83;1.60;;;;;;;;;;10438976;28;20401;-84
2022/07/05 17:30:30;;;;;;;3.40;1.60;;;;;;;;;;10435597;28;20431;-84
2022/07/05 17:35:32;;;;;;;3.50;1.80;;;;;;;;;;10436772;28;20406;-84
2022/07/05 17:40:33;;;;;;;4.10;1.50;;;;;;;;;;10435162;28;20775;-84
2022/07/05 17:45:37;;;;;;;2.63;1.30;;;;;;;;;;10440276;28;20898;-84
2022/07/05 17:50:39;;;;;;;1.37;1.27;;;;;;;;;;10435443;28;20431;-83
2022/07/05 17:55:41;;;;;;;4.00;1.67;;;;;;;;;;10439519;28;20425;-85
2022/07/05 18:00:44;;;;;;;1.67;1.35;;;;;;;;;;10431479;28;20941;-85
2022/07/05 18:05:46;;;;;;;4.13;1.52;;;;;;;;;;10431607;28;20424;-85
2022/07/05 18:10:47;;;;;;;2.67;1.70;;;;;;;;;;10435749;28;20419;-84
2022/07/05 18:15:50;;;;;;;5.00;2.10;;;;;;;;;;10427911;28;20426;-84
2022/07/05 18:20:52;;;;;;;3.05;1.38;;;;;;;;;;10433332;28;20519;-83
2022/07/05 18:25:54;;;;;;;2.53;1.40;;;;;;;;;;10431234;28;20921;-84
2022/07/05 18:30:57;;;;;;;2.67;1.20;;;;;;;;;;10428813;28;20427;-85
2022/07/05 18:35:59;;;;;;;2.42;1.55;;;;;;;;;;10428208;28;21328;-84
2022/07/05 18:41:01;;;;;;;2.07;1.30;;;;;;;;;;10428962;28;20812;-83
2022/07/05 18:46:04;;;;;;;2.22;1.38;;;;;;;;;;10432107;28;20412;-83
2022/07/05 18:51:06;;;;;;;3.90;1.30;;;;;;;;;;10431925;28;20411;-83
2022/07/05 18:56:08;;;;;;;1.70;1.25;;;;;;;;;;10432710;28;20403;-83
2022/07/05 19:01:11;;;;;;;2.60;1.47;;;;;;;;;;10430272;28;20396;-83
2022/07/05 19:16:53;;;;;;;1.67;1.40;;;;;;;;;;10355152;28;20415;-83
2022/07/05 19:21:55;;;;;;;1.58;1.48;;;;;;;;;;10354824;28;20419;-82
2022/07/05 19:26:57;;;;;;;3.10;1.60;;;;;;;;;;10351093;28;20427;-86
2022/07/05 19:32:00;;;;;;;1.60;1.50;;;;;;;;;;10349192;28;20427;-84
2022/07/05 19:37:02;;;;;;;2.63;1.57;;;;;;;;;;10346292;28;20787;-84
2022/07/05 19:42:05;;;;;;;6.07;1.60;;;;;;;;;;10356062;28;21598;-83
2022/07/05 19:47:08;;;;;;;2.08;1.48;;;;;;;;;;10354748;28;20473;-84
2022/07/05 19:52:10;;;;;;;3.97;1.88;;;;;;;;;;10356249;28;21270;-84
2022/07/05 19:57:12;;;;;;;2.60;1.73;;;;;;;;;;10353185;28;20417;-82
2022/07/05 20:02:15;;;;;;;2.17;1.80;;;;;;;;;;10355533;28;20428;-82
2022/07/05 20:07:17;;;;;;;4.75;2.00;;;;;;;;;;10352651;28;20426;-84
2022/07/05 20:12:18;;;;;;;2.65;1.70;;;;;;;;;;10356671;28;20426;-83
2022/07/05 20:17:22;;;;;;;2.97;1.70;;;;;;;;;;10348631;28;20758;-82
2022/07/05 20:22:23;;;;;;;1.97;1.77;;;;;;;;;;10355073;28;20418;-83
2022/07/05 20:27:25;;;;;;;3.35;1.98;;;;;;;;;;10357322;28;20436;-83
2022/07/05 20:32:29;;;;;;;3.05;1.77;;;;;;;;;;10359526;28;20541;-82
2022/07/05 20:37:31;;;;;;;3.45;2.00;;;;;;;;;;10361260;28;20418;-84
2022/07/05 20:42:33;;;;;;;3.80;2.20;;;;;;;;;;10361738;28;20428;-84
2022/07/05 20:47:37;;;;;;;3.20;1.70;;;;;;;;;;10360713;28;20773;-82
2022/07/05 20:52:39;;;;;;;3.73;1.60;;;;;;;;;;10358938;28;21072;-82
2022/07/05 20:57:40;;;;;;;2.05;1.67;;;;;;;;;;10360586;28;21077;-81
2022/07/05 21:02:44;;;;;;;2.58;1.60;;;;;;;;;;10360482;28;20413;-82
2022/07/05 21:07:46;;;;;;;3.53;1.65;;;;;;;;;;10362615;28;20509;-82
2022/07/05 21:12:48;;;;;;;4.07;1.73;;;;;;;;;;10356292;28;20433;-83
2022/07/05 21:17:51;;;;;;;2.80;1.83;;;;;;;;;;10354417;28;20426;-83
2022/07/05 21:22:53;;;;;;;3.95;1.98;;;;;;;;;;10368001;28;20433;-84
2022/07/05 21:27:54;;;;;;;1.97;1.70;;;;;;;;;;10370143;28;20520;-83
2022/07/05 21:32:58;;;;;;;2.13;1.70;;;;;;;;;;10368295;28;20464;-83
2022/07/05 21:38:02;;;;;;;2.03;1.83;;;;;;;;;;10358481;28;20431;-83
2022/07/05 21:43:04;;;;;;;3.30;1.90;;;;;;;;;;10358271;28;20435;-82
2022/07/05 21:48:09;;;;;;;3.33;1.85;;;;;;;;;;10364847;28;20419;-82
2022/07/05 21:53:11;;;;;;;2.25;1.85;;;;;;;;;;10367173;28;21017;-82
2022/07/05 21:58:12;;;;;;;2.17;1.60;;;;;;;;;;10366357;28;20401;-83
2022/07/05 22:08:36;;;;;;;2.20;1.90;;;;;;;;;;10356141;28;20787;-83
2022/07/05 22:13:38;;;;;;;2.37;1.57;;;;;;;;;;10362067;28;20422;-84
2022/07/05 22:18:41;;;;;;;2.75;1.67;;;;;;;;;;10364393;28;20546;-83
2022/07/05 22:23:44;;;;;;;1.43;1.33;;;;;;;;;;10363191;28;20501;-83
2022/07/05 22:28:46;;;;;;;2.07;1.30;;;;;;;;;;10361947;28;20486;-83
2022/07/05 22:33:49;;;;;;;4.45;1.20;;;;;;;;;;10362326;28;20513;-82
2022/07/05 22:38:51;;;;;;;1.53;1.13;;;;;;;;;;10363539;28;20925;-82
2022/07/05 22:43:53;;;;;;;3.10;1.30;;;;;;;;;;10365578;28;20502;-83
2022/07/05 22:48:59;;;;;;;2.40;1.15;;;;;;;;;;10364556;28;20839;-83
2022/07/05 22:54:00;;;;;;;4.13;1.50;;;;;;;;;;10363644;28;20982;-84
2022/07/05 22:59:02;;;;;;;6.68;1.98;;;;;;;;;;10360424;28;20438;-82
2022/07/05 23:04:05;;;;;;;3.17;1.40;;;;;;;;;;10364257;28;20708;-81
2022/07/05 23:09:07;;;;;;;5.10;1.77;;;;;;;;;;10360136;28;20591;-81
2022/07/05 23:14:09;;;;;;;3.00;1.50;;;;;;;;;;10364945;28;20423;-82
2022/07/05 23:19:13;;;;;;;5.10;1.83;;;;;;;;;;10364792;28;20403;-81
2022/07/05 23:29:34;;;;;;;2.78;1.83;;;;;;;;;;10363871;28;20383;-83
2022/07/05 23:34:37;;;;;;;4.07;1.70;;;;;;;;;;10363967;28;20431;-83
2022/07/05 23:39:39;;;;;;;1.75;1.45;;;;;;;;;;10364911;28;20433;-83
2022/07/05 23:44:42;;;;;;;2.90;1.38;;;;;;;;;;10363911;28;20455;-83
2022/07/05 23:49:47;;;;;;;2.25;1.73;;;;;;;;;;10362873;28;20429;-82
2022/07/05 23:54:49;;;;;;;3.00;1.58;;;;;;;;;;10362372;28;20795;-84
2022/07/05 23:59:50;;;;;;;2.40;1.52;;;;;;;;;;10362474;28;20418;-83
